Time;durP1;ratioP1;P1;durP2;ratioP2;P2;SDS_P1;SDS_P2;PMS_P1;PMS_P2;Temp;Humidity;BMP_temperature;BMP_pressure;BME280_temperature;BME280_humidity;BME280_pressure;Samples;Min_cycle;Max_cycle;Signal;HPM_P1;HPM_P2
2022/04/12 00:00:00;;;;;;;;;;;;;;;-139.34;100.00;63888.56;10561794;28;19924;-70
2022/04/12 00:05:22;;;;;;;;;;;;;;;-139.34;100.00;63888.56;10560567;28;19959;-64
2022/04/12 00:10:51;;;;;;;;;;;;;;;-139.34;100.00;63888.56;10511532;28;20322;-68
2022/04/12 00:16:13;;;;;;;;;;;;;;;-139.34;100.00;63888.56;10555056;28;19926;-65
2022/04/12 00:21:35;;;;;;;;;;;;;;;-139.34;100.00;63888.56;10562243;28;19958;-63
2022/04/12 00:26:57;;;;;;;;;;;;;;;-139.34;100.00;63888.56;10562033;28;19923;-64
2022/04/12 00:32:18;;;;;;;;;;;;;;;-139.34;100.00;63888.56;10560530;28;19923;-64
2022/04/12 00:37:39;;;;;;;;;;;;;;;-139.34;100.00;63888.56;10561233;28;19931;-66
2022/04/12 00:43:02;;;;;;;;;;;;;;;-139.34;100.00;63888.56;10560196;28;20539;-63
2022/04/12 00:48:24;;;;;;;;;;;;;;;-139.34;100.00;63888.56;10557409;28;19949;-66
2022/04/12 00:53:46;;;;;;;;;;;;;;;-139.34;100.00;63888.56;10560415;28;19920;-66
2022/04/12 00:59:08;;;;;;;;;;;;;;;-139.34;100.00;63888.56;10558823;28;19955;-66
2022/04/12 01:04:30;;;;;;;;;;;;;;;-139.34;100.00;63888.56;10546126;28;19930;-64
2022/04/12 01:09:52;;;;;;;;;;;;;;;-139.34;100.00;63888.56;10542944;28;19920;-64
2022/04/12 01:15:16;;;;;;;;;;;;;;;-139.34;100.00;63888.56;10555460;28;19934;-63
2022/04/12 01:20:37;;;;;;;;;;;;;;;-139.34;100.00;63888.56;10560170;28;19923;-65
2022/04/12 01:25:59;;;;;;;;;;;;;;;-139.34;100.00;63888.56;10538375;28;19931;-68
2022/04/12 01:31:20;;;;;;;;;;;;;;;-139.34;100.00;63888.56;10555233;28;19920;-65
2022/04/12 01:36:42;;;;;;;;;;;;;;;-139.34;100.00;63888.56;10540229;28;19920;-64
2022/04/12 01:42:04;;;;;;;;;;;;;;;-139.34;100.00;63888.56;10568778;28;19927;-64
2022/04/12 01:47:25;;;;;;;;;;;;;;;-139.34;100.00;63888.56;10569508;28;19930;-68
2022/04/12 01:52:47;;;;;;;;;;;;;;;-139.34;100.00;63888.56;10567913;28;19926;-64
2022/04/12 01:58:09;;;;;;;;;;;;;;;-139.34;100.00;63888.56;10568358;28;19931;-66
2022/04/12 02:03:31;;;;;;;;;;;;;;;-139.34;100.00;63888.56;10563555;28;19924;-66
2022/04/12 02:08:52;;;;;;;;;;;;;;;-139.34;100.00;63888.56;10568286;28;19927;-67
2022/04/12 02:14:14;;;;;;;;;;;;;;;-139.34;100.00;63888.56;10566816;28;19920;-67
2022/04/12 02:19:35;;;;;;;;;;;;;;;-139.34;100.00;63888.56;10554090;28;19927;-64
2022/04/12 02:24:57;;;;;;;;;;;;;;;-139.34;100.00;63888.56;10565068;28;19919;-65
2022/04/12 02:30:18;;;;;;;;;;;;;;;-139.34;100.00;63888.56;10567718;28;19928;-63
2022/04/12 02:35:40;;;;;;;;;;;;;;;-139.34;100.00;63888.56;10563987;28;19920;-63
2022/04/12 02:41:01;;;;;;;;;;;;;;;-139.34;100.00;63888.56;10565711;28;19927;-64
2022/04/12 02:46:23;;;;;;;;;;;;;;;-139.34;100.00;63888.56;10520839;28;19931;-64
2022/04/12 02:51:45;;;;;;;;;;;;;;;-139.34;100.00;63888.56;10560653;28;19920;-63
2022/04/12 02:57:07;;;;;;;;;;;;;;;-139.34;100.00;63888.56;10552347;28;19931;-64
2022/04/12 03:02:29;;;;;;;;;;;;;;;-139.34;100.00;63888.56;10556993;28;19927;-67
2022/04/12 03:07:50;;;;;;;;;;;;;;;-139.34;100.00;63888.56;10565772;28;20379;-67
2022/04/12 03:13:12;;;;;;;;;;;;;;;-139.34;100.00;63888.56;10550597;28;19920;-65
2022/04/12 03:18:33;;;;;;;;;;;;;;;-139.34;100.00;63888.56;10550659;28;19942;-64
2022/04/12 03:23:55;;;;;;;;;;;;;;;-139.34;100.00;63888.56;10568165;28;19926;-63
2022/04/12 03:29:17;;;;;;;;;;;;;;;-139.34;100.00;63888.56;10565129;28;19920;-65
2022/04/12 03:34:40;;;;;;;;;;;;;;;-139.34;100.00;63888.56;10559048;28;19924;-65
2022/04/12 03:40:02;;;;;;;;;;;;;;;-139.34;100.00;63888.56;10550463;28;19923;-64
2022/04/12 03:45:24;;;;;;;;;;;;;;;-139.34;100.00;63888.56;10520585;28;20341;-66
2022/04/12 03:50:45;;;;;;;;;;;;;;;-139.34;100.00;63888.56;10522436;28;20269;-68
2022/04/12 03:56:07;;;;;;;;;;;;;;;-139.34;100.00;63888.56;10558266;28;20260;-64
2022/04/12 04:01:29;;;;;;;;;;;;;;;-139.34;100.00;63888.56;10563713;28;20022;-65
2022/04/12 04:06:50;;;;;;;;;;;;;;;-139.34;100.00;63888.56;10541503;28;19965;-65
2022/04/12 04:12:12;;;;;;;;;;;;;;;-139.34;100.00;63888.56;10562779;28;20287;-67
2022/04/12 04:17:33;;;;;;;;;;;;;;;-139.34;100.00;63888.56;10563207;28;20287;-63
2022/04/12 04:22:55;;;;;;;;;;;;;;;-139.34;100.00;63888.56;10561938;28;20364;-68
2022/04/12 04:28:21;;;;;;;;;;;;;;;-139.34;100.00;63888.56;10563108;28;19920;-64
2022/04/12 04:33:43;;;;;;;;;;;;;;;-139.34;100.00;63888.56;10547371;28;20295;-69
2022/04/12 04:39:05;;;;;;;;;;;;;;;-139.34;100.00;63888.56;10519884;28;19920;-65
2022/04/12 04:44:27;;;;;;;;;;;;;;;-139.34;100.00;63888.56;10523799;28;20568;-64
2022/04/12 04:49:49;;;;;;;;;;;;;;;-139.34;100.00;63888.56;10520256;28;19927;-66
2022/04/12 04:55:10;;;;;;;;;;;;;;;-139.34;100.00;63888.56;10546706;28;19919;-65
2022/04/12 05:00:34;;;;;;;;;;;;;;;-139.34;100.00;63888.56;10554219;28;19920;-64
2022/04/12 05:05:57;;;;;;;;;;;;;;;-139.34;100.00;63888.56;10524874;28;19973;-64
2022/04/12 05:11:19;;;;;;;;;;;;;;;-139.34;100.00;63888.56;10558924;28;20383;-68
2022/04/12 05:16:40;;;;;;;;;;;;;;;-139.34;100.00;63888.56;10551953;28;20368;-68
2022/04/12 05:22:02;;;;;;;;;;;;;;;-139.34;100.00;63888.56;10559541;28;19950;-68
2022/04/12 05:27:23;;;;;;;;;;;;;;;-139.34;100.00;63888.56;10559406;28;19927;-67
2022/04/12 05:32:45;;;;;;;;;;;;;;;-139.34;100.00;63888.56;10555299;28;20046;-67
2022/04/12 05:38:07;;;;;;;;;;;;;;;-139.34;100.00;63888.56;10562160;28;19919;-66
2022/04/12 05:43:28;;;;;;;;;;;;;;;-139.34;100.00;63888.56;10572582;28;19926;-65
2022/04/12 05:48:50;;;;;;;;;;;;;;;-139.34;100.00;63888.56;10585545;28;20486;-67
2022/04/12 05:54:11;;;;;;;;;;;;;;;-139.34;100.00;63888.56;10558130;28;19934;-66
2022/04/12 05:59:33;;;;;;;;;;;;;;;-139.34;100.00;63888.56;10495273;28;19931;-67
2022/04/12 06:04:55;;;;;;;;;;;;;;;-139.34;100.00;63888.56;10549584;28;19920;-66
2022/04/12 06:10:17;;;;;;;;;;;;;;;-139.34;100.00;63888.56;10545730;28;19927;-67
2022/04/12 06:15:38;;;;;;;;;;;;;;;-139.34;100.00;63888.56;10541158;28;19926;-67
2022/04/12 06:21:01;;;;;;;;;;;;;;;-139.34;100.00;63888.56;10565438;28;19927;-67
2022/04/12 06:26:28;;;;;;;;;;;;;;;-139.34;100.00;63888.56;10550337;28;19963;-68
2022/04/12 06:31:49;;;;;;;;;;;;;;;-139.34;100.00;63888.56;10564154;28;19920;-66
2022/04/12 06:37:11;;;;;;;;;;;;;;;-139.34;100.00;63888.56;10561862;28;19958;-67
2022/04/12 06:42:33;;;;;;;;;;;;;;;-139.34;100.00;63888.56;10540264;28;19931;-66
2022/04/12 06:47:59;;;;;;;;;;;;;;;-139.34;100.00;63888.56;10565074;28;19927;-68
2022/04/12 06:53:23;;;;;;;;;;;;;;;-139.34;100.00;63888.56;10563125;28;20376;-66
2022/04/12 06:58:45;;;;;;;;;;;;;;;-139.34;100.00;63888.56;10553629;28;20391;-66
2022/04/12 07:04:06;;;;;;;;;;;;;;;-139.34;100.00;63888.56;10555802;28;19924;-67
2022/04/12 07:09:28;;;;;;;;;;;;;;;-139.34;100.00;63888.56;10545309;28;19923;-67
2022/04/12 07:14:51;;;;;;;;;;;;;;;-139.34;100.00;63888.56;10552376;28;21166;-67
2022/04/12 07:20:16;;;;;;;;;;;;;;;-139.34;100.00;63888.56;10556652;28;20002;-67
2022/04/12 07:25:37;;;;;;;;;;;;;;;-139.34;100.00;63888.56;10547070;28;19919;-68
2022/04/12 07:30:59;;;;;;;;;;;;;;;-139.34;100.00;63888.56;10556805;28;19923;-66
2022/04/12 07:36:21;;;;;;;;;;;;;;;-139.34;100.00;63888.56;10556590;28;20006;-67
2022/04/12 07:41:43;;;;;;;;;;;;;;;-139.34;100.00;63888.56;10542910;28;20391;-67
2022/04/12 07:47:05;;;;;;;;;;;;;;;-139.34;100.00;63888.56;10556206;28;20326;-68
2022/04/12 07:52:26;;;;;;;;;;;;;;;-139.34;100.00;63888.56;10554963;28;19927;-67
2022/04/12 07:57:48;;;;;;;;;;;;;;;-139.34;100.00;63888.56;10528270;28;20268;-68
2022/04/12 08:03:10;;;;;;;;;;;;;;;-139.34;100.00;63888.56;10553002;28;19919;-67
2022/04/12 08:08:32;;;;;;;;;;;;;;;-139.34;100.00;63888.56;10554694;28;19955;-68
2022/04/12 08:13:54;;;;;;;;;;;;;;;-139.34;100.00;63888.56;10551686;28;19919;-67
2022/04/12 08:19:15;;;;;;;;;;;;;;;-139.34;100.00;63888.56;10541567;28;19920;-68
2022/04/12 08:24:37;;;;;;;;;;;;;;;-139.34;100.00;63888.56;10525243;28;19923;-68
2022/04/12 08:29:59;;;;;;;;;;;;;;;-139.34;100.00;63888.56;10541992;28;20000;-66
2022/04/12 08:35:20;;;;;;;;;;;;;;;-139.34;100.00;63888.56;10554399;28;19972;-65
2022/04/12 08:40:44;;;;;;;;;;;;;;;-139.34;100.00;63888.56;10554171;28;19977;-68
2022/04/12 08:46:06;;;;;;;;;;;;;;;-139.34;100.00;63888.56;10562829;28;19931;-67
2022/04/12 08:51:28;;;;;;;;;;;;;;;-139.34;100.00;63888.56;10557001;28;19980;-66
2022/04/12 08:56:51;;;;;;;;;;;;;;;-139.34;100.00;63888.56;10552820;28;19946;-65
2022/04/12 09:02:13;;;;;;;;;;;;;;;-139.34;100.00;63888.56;10548895;28;19924;-65
2022/04/12 09:07:43;;;;;;;;;;;;;;;-139.34;100.00;63888.56;10528470;28;19923;-64
2022/04/12 09:13:12;;;;;;;;;;;;;;;-139.34;100.00;63888.56;10535936;28;19990;-65
2022/04/12 09:18:35;;;;;;;;;;;;;;;-139.34;100.00;63888.56;10553966;28;19950;-64
2022/04/12 09:23:56;;;;;;;;;;;;;;;-139.34;100.00;63888.56;10554997;28;19920;-64
2022/04/12 09:29:24;;;;;;;;;;;;;;;-139.34;100.00;63888.56;10552919;28;20376;-63
2022/04/12 09:34:45;;;;;;;;;;;;;;;-139.34;100.00;63888.56;10552585;28;19931;-66
2022/04/12 09:40:13;;;;;;;;;;;;;;;-139.34;100.00;63888.56;10548953;28;19920;-63
2022/04/12 09:45:35;;;;;;;;;;;;;;;-139.34;100.00;63888.56;10558931;28;19930;-64
2022/04/12 09:51:00;;;;;;;;;;;;;;;-139.34;100.00;63888.56;10567053;27;19920;-64
2022/04/12 09:56:23;;;;;;;;;;;;;;;-139.34;100.00;63888.56;10566360;28;19959;-64
2022/04/12 10:01:45;;;;;;;;;;;;;;;-139.34;100.00;63888.56;10551050;28;19951;-64
2022/04/12 10:07:06;;;;;;;;;;;;;;;-139.34;100.00;63888.56;10559558;28;19920;-63
2022/04/12 10:12:28;;;;;;;;;;;;;;;-139.34;100.00;63888.56;10558254;28;19941;-66
2022/04/12 10:17:50;;;;;;;;;;;;;;;-139.34;100.00;63888.56;10559157;28;19926;-65
2022/04/12 10:23:14;;;;;;;;;;;;;;;-139.34;100.00;63888.56;10564472;28;20389;-64
2022/04/12 10:28:36;;;;;;;;;;;;;;;-139.34;100.00;63888.56;10564022;28;19923;-64
2022/04/12 10:34:01;;;;;;;;;;;;;;;-139.34;100.00;63888.56;10565014;28;19927;-64
2022/04/12 10:39:28;;;;;;;;;;;;;;;-139.34;100.00;63888.56;10546055;28;20405;-64
2022/04/12 10:44:56;;;;;;;;;;;;;;;-139.34;100.00;63888.56;10519918;28;19955;-64
2022/04/12 10:50:18;;;;;;;;;;;;;;;-139.34;100.00;63888.56;10561985;28;19920;-64
2022/04/12 10:55:42;;;;;;;;;;;;;;;-139.34;100.00;63888.56;10563023;28;19923;-64
2022/04/12 11:01:04;;;;;;;;;;;;;;;-139.34;100.00;63888.56;10563269;28;19919;-64
2022/04/12 11:06:27;;;;;;;;;;;;;;;-139.34;100.00;63888.56;10559713;28;19920;-64
2022/04/12 11:11:52;;;;;;;;;;;;;;;-139.34;100.00;63888.56;10562676;28;19926;-64
2022/04/12 11:17:17;;;;;;;;;;;;;;;-139.34;100.00;63888.56;10559841;28;20390;-65
2022/04/12 11:22:42;;;;;;;;;;;;;;;-139.34;100.00;63888.56;10560472;28;19920;-64
2022/04/12 11:28:04;;;;;;;;;;;;;;;-139.34;100.00;63888.56;10555930;28;19958;-64
2022/04/12 11:33:26;;;;;;;;;;;;;;;-139.34;100.00;63888.56;10561507;28;19919;-64
2022/04/12 11:38:48;;;;;;;;;;;;;;;-139.34;100.00;63888.56;10561055;28;19924;-64
2022/04/12 11:44:09;;;;;;;;;;;;;;;-139.34;100.00;63888.56;10547810;27;19927;-66
2022/04/12 11:49:32;;;;;;;;;;;;;;;-139.34;100.00;63888.56;10573573;27;19924;-67
2022/04/12 11:54:58;;;;;;;;;;;;;;;-139.34;100.00;63888.56;10561347;28;19928;-64
2022/04/12 12:00:24;;;;;;;;;;;;;;;-139.34;100.00;63888.56;10557254;28;19935;-64
2022/04/12 12:05:47;;;;;;;;;;;;;;;-139.34;100.00;63888.56;10549519;28;19927;-66
2022/04/12 12:11:09;;;;;;;;;;;;;;;-139.34;100.00;63888.56;10559744;28;19927;-64
2022/04/12 12:16:31;;;;;;;;;;;;;;;-139.34;100.00;63888.56;10561155;28;20018;-65
2022/04/12 12:21:53;;;;;;;;;;;;;;;-139.34;100.00;63888.56;10558824;28;19938;-64
2022/04/12 12:27:24;;;;;;;;;;;;;;;-139.34;100.00;63888.56;10560193;28;20014;-66
2022/04/12 12:32:49;;;;;;;;;;;;;;;-139.34;100.00;63888.56;10560203;28;19923;-65
2022/04/12 12:38:12;;;;;;;;;;;;;;;-139.34;100.00;63888.56;10559393;28;20288;-65
2022/04/12 12:43:34;;;;;;;;;;;;;;;-139.34;100.00;63888.56;10549656;28;19923;-65
2022/04/12 12:49:28;;;;;;;;;;;;;;;-139.34;100.00;63888.56;10553939;28;19924;-64
2022/04/12 12:54:54;;;;;;;;;;;;;;;-139.34;100.00;63888.56;10517760;28;20364;-65
2022/04/12 13:00:17;;;;;;;;;;;;;;;-139.34;100.00;63888.56;10559298;28;19920;-64
2022/04/12 13:05:45;;;;;;;;;;;;;;;-139.34;100.00;63888.56;10549107;28;19929;-65
2022/04/12 13:11:07;;;;;;;;;;;;;;;-139.34;100.00;63888.56;10552976;28;19919;-66
2022/04/12 13:16:28;;;;;;;;;;;;;;;-139.34;100.00;63888.56;10557583;28;19927;-65
2022/04/12 13:21:50;;;;;;;;;;;;;;;-139.34;100.00;63888.56;10555345;28;19919;-65
2022/04/12 13:27:11;;;;;;;;;;;;;;;-139.34;100.00;63888.56;10555559;28;19939;-64
2022/04/12 13:32:33;;;;;;;;;;;;;;;-139.34;100.00;63888.56;10555230;28;19927;-64
2022/04/12 13:38:01;;;;;;;;;;;;;;;-139.34;100.00;63888.56;10554535;28;19959;-64
2022/04/12 13:43:22;;;;;;;;;;;;;;;-139.34;100.00;63888.56;10524972;28;20497;-64
2022/04/12 13:48:44;;;;;;;;;;;;;;;-139.34;100.00;63888.56;10552786;28;19920;-64
2022/04/12 13:54:05;;;;;;;;;;;;;;;-139.34;100.00;63888.56;10557058;28;19919;-64
2022/04/12 13:59:27;;;;;;;;;;;;;;;-139.34;100.00;63888.56;10564487;28;19927;-64
2022/04/12 14:04:49;;;;;;;;;;;;;;;-139.34;100.00;63888.56;10558469;28;19919;-64
2022/04/12 14:10:12;;;;;;;;;;;;;;;-139.34;100.00;63888.56;10550823;28;19984;-65
2022/04/12 14:15:34;;;;;;;;;;;;;;;-139.34;100.00;63888.56;10558491;28;19920;-64
2022/04/12 14:20:55;;;;;;;;;;;;;;;-139.34;100.00;63888.56;10548850;28;20334;-63
2022/04/12 14:26:17;;;;;;;;;;;;;;;-139.34;100.00;63888.56;10558126;28;20573;-64
2022/04/12 14:31:38;;;;;;;;;;;;;;;-139.34;100.00;63888.56;10556432;28;20376;-63
2022/04/12 14:37:00;;;;;;;;;;;;;;;-139.34;100.00;63888.56;10558971;28;19926;-63
2022/04/12 14:42:21;;;;;;;;;;;;;;;-139.34;100.00;63888.56;10555095;28;20404;-63
2022/04/12 14:47:43;;;;;;;;;;;;;;;-139.34;100.00;63888.56;10564197;28;19923;-63
2022/04/12 14:53:05;;;;;;;;;;;;;;;-139.34;100.00;63888.56;10560388;28;19920;-64
2022/04/12 14:58:28;;;;;;;;;;;;;;;-139.34;100.00;63888.56;10562645;28;19920;-63
2022/04/12 15:03:50;;;;;;;;;;;;;;;-139.34;100.00;63888.56;10562263;28;20560;-62
2022/04/12 15:09:11;;;;;;;;;;;;;;;-139.34;100.00;63888.56;10563664;28;19945;-62
2022/04/12 15:14:33;;;;;;;;;;;;;;;-139.34;100.00;63888.56;10557313;28;19920;-62
2022/04/12 15:19:54;;;;;;;;;;;;;;;-139.34;100.00;63888.56;10557954;28;19919;-62
2022/04/12 15:25:16;;;;;;;;;;;;;;;-139.34;100.00;63888.56;10558028;28;20644;-62
2022/04/12 15:30:38;;;;;;;;;;;;;;;-139.34;100.00;63888.56;10560769;28;19923;-63
2022/04/12 15:36:01;;;;;;;;;;;;;;;-139.34;100.00;63888.56;10559887;28;19927;-63
2022/04/12 15:41:23;;;;;;;;;;;;;;;-139.34;100.00;63888.56;10570265;28;19926;-63
2022/04/12 15:46:44;;;;;;;;;;;;;;;-139.34;100.00;63888.56;10547917;28;19935;-63
2022/04/12 15:52:06;;;;;;;;;;;;;;;-139.34;100.00;63888.56;10553299;28;19920;-63
2022/04/12 15:57:28;;;;;;;;;;;;;;;-139.34;100.00;63888.56;10557980;27;19919;-63
2022/04/12 16:02:50;;;;;;;;;;;;;;;-139.34;100.00;63888.56;10553139;28;19926;-62
2022/04/12 16:08:12;;;;;;;;;;;;;;;-139.34;100.00;63888.56;10561721;28;20352;-63
2022/04/12 16:13:34;;;;;;;;;;;;;;;-139.34;100.00;63888.56;10556373;28;20279;-63
2022/04/12 16:18:56;;;;;;;;;;;;;;;-139.34;100.00;63888.56;10556406;28;20359;-63
2022/04/12 16:24:20;;;;;;;;;;;;;;;-139.34;100.00;63888.56;10561808;27;19938;-63
2022/04/12 16:29:42;;;;;;;;;;;;;;;-139.34;100.00;63888.56;10552717;28;20316;-62
2022/04/12 16:35:10;;;;;;;;;;;;;;;-139.34;100.00;63888.56;10556285;28;20493;-63
2022/04/12 16:40:33;;;;;;;;;;;;;;;-139.34;100.00;63888.56;10548191;28;19927;-63
2022/04/12 16:45:54;;;;;;;;;;;;;;;-139.34;100.00;63888.56;10570318;28;19923;-63
2022/04/12 16:51:16;;;;;;;;;;;;;;;-139.34;100.00;63888.56;10566676;27;19923;-63
2022/04/12 16:56:37;;;;;;;;;;;;;;;-139.34;100.00;63888.56;10556364;27;19924;-62
2022/04/12 17:02:02;;;;;;;;;;;;;;;-139.34;100.00;63888.56;10553064;28;19927;-62
2022/04/12 17:07:25;;;;;;;;;;;;;;;-139.34;100.00;63888.56;10539528;28;19923;-63
2022/04/12 17:12:46;;;;;;;;;;;;;;;-139.34;100.00;63888.56;10551469;28;19920;-64
2022/04/12 17:18:08;;;;;;;;;;;;;;;-139.34;100.00;63888.56;10558561;28;19973;-65
2022/04/12 17:23:29;;;;;;;;;;;;;;;-139.34;100.00;63888.56;10548783;28;20388;-63
2022/04/12 17:28:51;;;;;;;;;;;;;;;-139.34;100.00;63888.56;10552209;28;19931;-62
2022/04/12 17:34:16;;;;;;;;;;;;;;;-139.34;100.00;63888.56;10538033;28;20407;-63
2022/04/12 17:39:40;;;;;;;;;;;;;;;-139.34;100.00;63888.56;10552480;28;20632;-63
2022/04/12 17:45:02;;;;;;;;;;;;;;;-139.34;100.00;63888.56;10553206;28;19934;-63
2022/04/12 17:50:24;;;;;;;;;;;;;;;-139.34;100.00;63888.56;10550694;28;20348;-62
2022/04/12 17:55:45;;;;;;;;;;;;;;;-139.34;100.00;63888.56;10553144;28;20425;-64
2022/04/12 18:01:07;;;;;;;;;;;;;;;-139.34;100.00;63888.56;10555778;28;19923;-61
2022/04/12 18:06:28;;;;;;;;;;;;;;;-139.34;100.00;63888.56;10571161;28;19920;-63
2022/04/12 18:11:50;;;;;;;;;;;;;;;-139.34;100.00;63888.56;10553905;27;19931;-63
2022/04/12 18:17:12;;;;;;;;;;;;;;;-139.34;100.00;63888.56;10548716;28;19920;-64
2022/04/12 18:22:33;;;;;;;;;;;;;;;-139.34;100.00;63888.56;10572206;27;20036;-64
2022/04/12 18:27:55;;;;;;;;;;;;;;;-139.34;100.00;63888.56;10573170;28;20409;-61
2022/04/12 18:33:16;;;;;;;;;;;;;;;-139.34;100.00;63888.56;10579037;28;19919;-61
2022/04/12 18:38:38;;;;;;;;;;;;;;;-139.34;100.00;63888.56;10555287;28;19980;-63
2022/04/12 18:43:59;;;;;;;;;;;;;;;-139.34;100.00;63888.56;10590066;28;19920;-59
2022/04/12 18:49:21;;;;;;;;;;;;;;;-139.34;100.00;63888.56;10564741;28;19924;-61
2022/04/12 18:54:45;;;;;;;;;;;;;;;-139.34;100.00;63888.56;10583643;28;19972;-63
2022/04/12 19:00:10;;;;;;;;;;;;;;;-139.34;100.00;63888.56;10586581;28;19926;-62
2022/04/12 19:05:32;;;;;;;;;;;;;;;-139.34;100.00;63888.56;10549039;28;19928;-61
2022/04/12 19:10:56;;;;;;;;;;;;;;;-139.34;100.00;63888.56;10585127;28;20007;-62
2022/04/12 19:16:17;;;;;;;;;;;;;;;-139.34;100.00;63888.56;10584899;28;19920;-63
2022/04/12 19:21:39;;;;;;;;;;;;;;;-139.34;100.00;63888.56;10575401;28;19927;-60
2022/04/12 19:27:00;;;;;;;;;;;;;;;-139.34;100.00;63888.56;10585754;28;20010;-61
2022/04/12 19:32:22;;;;;;;;;;;;;;;-139.34;100.00;63888.56;10589828;28;19920;-59
2022/04/12 19:37:44;;;;;;;;;;;;;;;-139.34;100.00;63888.56;10584747;28;19919;-63
2022/04/12 19:43:05;;;;;;;;;;;;;;;-139.34;100.00;63888.56;10582171;28;19975;-60
2022/04/12 19:48:27;;;;;;;;;;;;;;;-139.34;100.00;63888.56;10579259;28;19955;-63
2022/04/12 19:53:49;;;;;;;;;;;;;;;-139.34;100.00;63888.56;10579643;28;19930;-64
2022/04/12 19:59:12;;;;;;;;;;;;;;;-139.34;100.00;63888.56;10583152;28;19919;-62
2022/04/12 20:04:33;;;;;;;;;;;;;;;-139.34;100.00;63888.56;10565494;28;19971;-63
2022/04/12 20:09:55;;;;;;;;;;;;;;;-139.34;100.00;63888.56;10572134;28;20022;-62
2022/04/12 20:15:17;;;;;;;;;;;;;;;-139.34;100.00;63888.56;10569068;28;19985;-62
2022/04/12 20:20:39;;;;;;;;;;;;;;;-139.34;100.00;63888.56;10571179;28;19926;-62
2022/04/12 20:26:01;;;;;;;;;;;;;;;-139.34;100.00;63888.56;10584402;28;19971;-62
2022/04/12 20:31:23;;;;;;;;;;;;;;;-139.34;100.00;63888.56;10570500;28;20015;-59
2022/04/12 20:36:44;;;;;;;;;;;;;;;-139.34;100.00;63888.56;10539878;28;19945;-59
2022/04/12 20:42:06;;;;;;;;;;;;;;;-139.34;100.00;63888.56;10561378;28;19987;-62
2022/04/12 20:47:28;;;;;;;;;;;;;;;-139.34;100.00;63888.56;10568670;28;19930;-61
2022/04/12 20:52:50;;;;;;;;;;;;;;;-139.34;100.00;63888.56;10560459;28;19923;-62
2022/04/12 20:58:12;;;;;;;;;;;;;;;-139.34;100.00;63888.56;10571021;28;19923;-62
2022/04/12 21:03:33;;;;;;;;;;;;;;;-139.34;100.00;63888.56;10569921;28;20163;-63
2022/04/12 21:08:55;;;;;;;;;;;;;;;-139.34;100.00;63888.56;10564880;28;19930;-63
2022/04/12 21:14:17;;;;;;;;;;;;;;;-139.34;100.00;63888.56;10568611;28;19950;-62
2022/04/12 21:19:38;;;;;;;;;;;;;;;-139.34;100.00;63888.56;10568512;28;20438;-63
2022/04/12 21:25:00;;;;;;;;;;;;;;;-139.34;100.00;63888.56;10559886;28;20563;-62
2022/04/12 21:30:21;;;;;;;;;;;;;;;-139.34;100.00;63888.56;10561901;28;19923;-62
2022/04/12 21:35:43;;;;;;;;;;;;;;;-139.34;100.00;63888.56;10569286;28;19927;-60
2022/04/12 21:41:04;;;;;;;;;;;;;;;-139.34;100.00;63888.56;10578115;28;19907;-60
2022/04/12 21:46:26;;;;;;;;;;;;;;;-139.34;100.00;63888.56;10572643;27;20176;-62
2022/04/12 21:51:48;;;;;;;;;;;;;;;-139.34;100.00;63888.56;10534998;28;20018;-61
2022/04/12 21:57:09;;;;;;;;;;;;;;;-139.34;100.00;63888.56;10563435;28;19923;-61
2022/04/12 22:02:31;;;;;;;;;;;;;;;-139.34;100.00;63888.56;10573562;28;19923;-61
2022/04/12 22:07:53;;;;;;;;;;;;;;;-139.34;100.00;63888.56;10574699;28;19924;-62
2022/04/12 22:13:14;;;;;;;;;;;;;;;-139.34;100.00;63888.56;10569376;28;19924;-61
2022/04/12 22:18:36;;;;;;;;;;;;;;;-139.34;100.00;63888.56;10563922;27;19955;-62
2022/04/12 22:23:58;;;;;;;;;;;;;;;-139.34;100.00;63888.56;10573713;28;19928;-60
2022/04/12 22:29:19;;;;;;;;;;;;;;;-139.34;100.00;63888.56;10580181;28;19947;-59
2022/04/12 22:34:41;;;;;;;;;;;;;;;-139.34;100.00;63888.56;10575791;28;19919;-62
2022/04/12 22:40:03;;;;;;;;;;;;;;;-139.34;100.00;63888.56;10575733;28;19926;-62
2022/04/12 22:45:24;;;;;;;;;;;;;;;-139.34;100.00;63888.56;10565707;28;19926;-61
2022/04/12 22:50:46;;;;;;;;;;;;;;;-139.34;100.00;63888.56;10569641;28;19924;-62
2022/04/12 22:56:07;;;;;;;;;;;;;;;-139.34;100.00;63888.56;10570818;28;19934;-62
2022/04/12 23:01:29;;;;;;;;;;;;;;;-139.34;100.00;63888.56;10576209;28;19946;-62
2022/04/12 23:06:50;;;;;;;;;;;;;;;-139.34;100.00;63888.56;10566774;28;20015;-62
2022/04/12 23:12:14;;;;;;;;;;;;;;;-139.34;100.00;63888.56;10569948;28;19920;-59
2022/04/12 23:17:52;;;;;;;;;;;;;;;-139.34;100.00;63888.56;10579888;28;19934;-62
2022/04/12 23:23:13;;;;;;;;;;;;;;;-139.34;100.00;63888.56;10565656;28;20022;-61
2022/04/12 23:28:35;;;;;;;;;;;;;;;-139.34;100.00;63888.56;10556077;28;20520;-61
2022/04/12 23:33:56;;;;;;;;;;;;;;;-139.34;100.00;63888.56;10567430;28;19927;-62
2022/04/12 23:39:18;;;;;;;;;;;;;;;-139.34;100.00;63888.56;10573234;28;19920;-62
2022/04/12 23:44:39;;;;;;;;;;;;;;;-139.34;100.00;63888.56;10547139;28;20283;-61
2022/04/12 23:50:01;;;;;;;;;;;;;;;-139.34;100.00;63888.56;10571448;28;20488;-61
2022/04/12 23:55:23;;;;;;;;;;;;;;;-139.34;100.00;63888.56;10568342;28;19920;-61
